createdAt,value
2019-01-08T00:00:30.391Z,49.33
2019-01-08T00:02:56.347Z,49.07
2019-01-08T00:05:22.240Z,49.17
2019-01-08T00:07:51.162Z,49.35
2019-01-08T00:10:17.059Z,48.76
2019-01-08T00:12:45.720Z,49.11
2019-01-08T00:15:11.622Z,49.08
2019-01-08T00:17:40.532Z,49.13
2019-01-08T00:20:09.590Z,49.39
2019-01-08T00:22:38.658Z,48.92
2019-01-08T00:25:04.621Z,49.07
2019-01-08T00:27:33.543Z,48.90
2019-01-08T00:29:59.439Z,49.14
2019-01-08T00:32:28.457Z,49.32
2019-01-08T00:34:57.285Z,49.18
2019-01-08T00:37:23.183Z,49.00
2019-01-08T00:39:50.390Z,49.48
2019-01-08T00:42:16.265Z,49.65
2019-01-08T00:44:42.157Z,49.76
2019-01-08T00:47:08.387Z,49.50
2019-01-08T00:49:38.298Z,49.11
2019-01-08T00:52:08.667Z,48.93
2019-01-08T00:54:34.568Z,48.70
2019-01-08T00:57:00.508Z,49.17
2019-01-08T00:59:26.454Z,49.00
2019-01-08T01:01:55.113Z,49.40
2019-01-08T01:04:21.034Z,49.09
2019-01-08T01:06:46.925Z,49.26
2019-01-08T01:09:15.965Z,49.03
2019-01-08T01:11:45.045Z,49.10
2019-01-08T01:14:14.023Z,49.66
2019-01-08T01:16:39.923Z,49.12
2019-01-08T01:19:08.874Z,49.18
2019-01-08T01:21:35.097Z,49.27
2019-01-08T01:24:01.014Z,49.40
2019-01-08T01:26:26.920Z,49.40
2019-01-08T01:28:59.978Z,49.22
2019-01-08T01:31:23.358Z,49.63
2019-01-08T01:33:49.845Z,49.31
2019-01-08T01:36:18.576Z,49.27
2019-01-08T01:38:47.492Z,49.35
2019-01-08T01:41:13.389Z,49.21
2019-01-08T01:43:39.292Z,49.27
2019-01-08T01:46:08.348Z,49.33
2019-01-08T01:48:34.260Z,49.63
2019-01-08T01:51:03.292Z,49.46
2019-01-08T01:53:29.197Z,49.61
2019-01-08T01:55:55.140Z,49.57
2019-01-08T01:58:23.989Z,49.63
2019-01-08T02:00:50.334Z,49.40
2019-01-08T02:03:16.244Z,49.88
2019-01-08T02:05:45.152Z,49.33
2019-01-08T02:08:14.076Z,49.81
2019-01-08T02:10:42.729Z,49.60
2019-01-08T02:13:08.674Z,50.04
2019-01-08T02:15:37.659Z,49.81
2019-01-08T02:18:06.606Z,49.41
2019-01-08T02:20:35.585Z,49.83
2019-01-08T02:23:04.585Z,49.49
2019-01-08T02:25:33.530Z,49.62
2019-01-08T02:28:02.623Z,49.96
2019-01-08T02:30:28.518Z,49.54
2019-01-08T02:32:57.475Z,49.86
2019-01-08T02:35:26.370Z,49.62
2019-01-08T02:37:55.301Z,49.71
2019-01-08T02:40:21.200Z,49.74
2019-01-08T02:42:50.141Z,49.89
2019-01-08T02:45:16.054Z,49.92
2019-01-08T02:47:44.984Z,49.83
2019-01-08T02:50:13.972Z,49.81
2019-01-08T02:52:40.017Z,49.82
2019-01-08T02:55:05.944Z,49.70
2019-01-08T02:57:34.879Z,49.59
2019-01-08T03:00:00.773Z,49.56
2019-01-08T03:02:29.598Z,49.70
2019-01-08T03:04:55.511Z,49.75
2019-01-08T03:07:21.450Z,49.68
2019-01-08T03:09:50.358Z,49.79
2019-01-08T03:12:20.784Z,50.36
2019-01-08T03:14:51.597Z,50.30
2019-01-08T03:17:17.691Z,49.62
2019-01-08T03:19:46.348Z,50.08
2019-01-08T03:22:12.246Z,49.56
2019-01-08T03:24:38.148Z,50.15
2019-01-08T03:27:04.042Z,49.65
2019-01-08T03:29:33.728Z,49.92
2019-01-08T03:31:57.653Z,49.75
2019-01-08T03:34:23.539Z,49.91
2019-01-08T03:36:50.547Z,49.68
2019-01-08T03:39:16.442Z,50.35
2019-01-08T03:41:42.383Z,49.55
2019-01-08T03:44:11.013Z,49.66
2019-01-08T03:46:37.342Z,49.74
2019-01-08T03:49:06.059Z,49.61
2019-01-08T03:51:34.952Z,49.74
2019-01-08T03:54:03.857Z,49.52
2019-01-08T03:56:29.982Z,50.05
2019-01-08T03:58:58.707Z,49.83
2019-01-08T04:01:25.518Z,49.50
2019-01-08T04:03:51.396Z,50.29
2019-01-08T04:06:20.354Z,49.51
2019-01-08T04:08:52.223Z,50.43
2019-01-08T04:11:18.125Z,49.97
2019-01-08T04:13:47.293Z,49.89
2019-01-08T04:16:13.229Z,50.32
2019-01-08T04:18:39.173Z,49.96
2019-01-08T04:21:08.095Z,50.08
2019-01-08T04:23:36.792Z,49.85
2019-01-08T04:26:05.749Z,49.63
2019-01-08T04:28:31.695Z,49.87
2019-01-08T04:30:57.944Z,49.96
2019-01-08T04:33:26.686Z,50.05
2019-01-08T04:35:52.621Z,50.08
2019-01-08T04:38:18.536Z,50.64
2019-01-08T04:40:47.320Z,50.07
2019-01-08T04:43:14.077Z,49.99
2019-01-08T04:45:43.046Z,49.79
2019-01-08T04:48:11.965Z,49.79
2019-01-08T04:50:40.923Z,49.74
2019-01-08T04:53:06.812Z,50.12
2019-01-08T04:55:32.741Z,49.73
2019-01-08T04:57:58.644Z,50.10
2019-01-08T05:00:27.548Z,49.87
2019-01-08T05:02:56.502Z,50.23
2019-01-08T05:05:25.420Z,50.12
2019-01-08T05:07:51.784Z,49.90
2019-01-08T05:10:17.686Z,49.68
2019-01-08T05:12:48.078Z,49.53
2019-01-08T05:15:16.986Z,50.01
2019-01-08T05:17:45.892Z,50.43
2019-01-08T05:20:11.792Z,49.66
2019-01-08T05:22:40.711Z,49.56
2019-01-08T05:25:09.747Z,49.45
2019-01-08T05:27:35.698Z,49.31
2019-01-08T05:30:08.079Z,49.40
2019-01-08T05:32:34.325Z,49.68
2019-01-08T05:35:04.470Z,49.16
2019-01-08T05:37:30.365Z,49.55
2019-01-08T05:39:59.573Z,49.07
2019-01-08T05:42:25.479Z,49.74
2019-01-08T05:44:51.719Z,49.48
2019-01-08T05:47:17.730Z,49.22
2019-01-08T05:49:44.136Z,49.52
2019-01-08T05:52:10.030Z,49.74
2019-01-08T05:54:39.181Z,49.00
2019-01-08T05:57:08.348Z,49.27
2019-01-08T05:59:37.095Z,49.59
2019-01-08T06:02:04.005Z,49.53
2019-01-08T06:04:29.985Z,49.15
2019-01-08T06:06:55.898Z,49.40
2019-01-08T06:09:21.786Z,49.03
2019-01-08T06:11:47.682Z,49.08
2019-01-08T06:14:13.587Z,49.27
2019-01-08T06:16:39.529Z,49.01
2019-01-08T06:19:05.446Z,48.94
2019-01-08T06:21:31.704Z,49.35
2019-01-08T06:23:57.602Z,48.86
2019-01-08T06:26:26.568Z,48.64
2019-01-08T06:28:52.624Z,48.94
2019-01-08T06:31:22.708Z,49.43
2019-01-08T06:33:52.108Z,48.87
2019-01-08T06:36:18.021Z,48.54
2019-01-08T06:38:46.686Z,48.92
2019-01-08T06:41:16.002Z,48.83
2019-01-08T06:43:44.990Z,48.48
2019-01-08T06:46:13.888Z,48.86
2019-01-08T06:48:43.025Z,48.84
2019-01-08T06:51:08.938Z,48.67
2019-01-08T06:53:34.824Z,48.69
2019-01-08T06:56:00.786Z,48.73
2019-01-08T06:58:26.685Z,48.43
2019-01-08T07:00:52.703Z,48.50
2019-01-08T07:03:18.588Z,48.85
2019-01-08T07:05:44.477Z,48.37
2019-01-08T07:08:13.158Z,49.24
2019-01-08T07:10:40.961Z,48.72
2019-01-08T07:13:06.913Z,49.14
2019-01-08T07:15:35.841Z,49.05
2019-01-08T07:18:04.748Z,48.68
2019-01-08T07:20:33.677Z,48.79
2019-01-08T07:22:59.616Z,48.89
2019-01-08T07:25:28.605Z,49.15
2019-01-08T07:27:54.519Z,48.65
2019-01-08T07:30:23.652Z,48.55
2019-01-08T07:32:52.581Z,48.43
2019-01-08T07:35:21.972Z,49.01
2019-01-08T07:37:50.709Z,48.91
2019-01-08T07:40:22.590Z,48.35
2019-01-08T07:42:51.316Z,48.57
2019-01-08T07:45:22.997Z,48.18
2019-01-08T07:47:48.900Z,48.26
2019-01-08T07:50:17.806Z,49.27
2019-01-08T07:52:43.712Z,48.26
2019-01-08T07:55:09.610Z,48.18
2019-01-08T07:57:35.517Z,48.67
2019-01-08T08:00:05.134Z,48.37
2019-01-08T08:02:34.158Z,48.57
2019-01-08T08:05:03.839Z,48.81
2019-01-08T08:07:32.761Z,48.59
2019-01-08T08:10:01.733Z,48.87
2019-01-08T08:12:30.662Z,48.42
2019-01-08T08:14:59.557Z,48.73
2019-01-08T08:17:25.470Z,48.32
2019-01-08T08:19:51.360Z,48.22
2019-01-08T08:22:17.258Z,48.89
2019-01-08T08:24:43.142Z,48.39
2019-01-08T08:27:09.056Z,48.66
2019-01-08T08:29:35.443Z,48.06
2019-01-08T08:32:01.389Z,48.04
2019-01-08T08:34:27.297Z,48.35
2019-01-08T08:36:53.198Z,48.40
2019-01-08T08:39:20.440Z,48.23
2019-01-08T08:41:46.297Z,48.15
2019-01-08T08:44:12.242Z,48.13
2019-01-08T08:46:38.125Z,48.16
2019-01-08T08:49:04.083Z,48.18
2019-01-08T08:51:29.968Z,48.68
2019-01-08T08:53:55.874Z,48.48
2019-01-08T08:56:24.531Z,48.83
2019-01-08T08:58:50.421Z,48.39
2019-01-08T09:01:16.661Z,48.55
2019-01-08T09:03:42.884Z,48.52
2019-01-08T09:06:08.786Z,48.32
2019-01-08T09:08:34.674Z,48.35
2019-01-08T09:11:00.643Z,48.53
2019-01-08T09:13:26.631Z,48.28
2019-01-08T09:15:52.637Z,48.43
2019-01-08T09:18:21.301Z,48.79
2019-01-08T09:20:47.666Z,48.46
2019-01-08T09:23:13.747Z,48.25
2019-01-08T09:25:40.898Z,48.36
2019-01-08T09:28:06.825Z,48.67
2019-01-08T09:30:36.062Z,48.06
2019-01-08T09:33:02.146Z,48.38
2019-01-08T09:35:30.768Z,48.57
2019-01-08T09:37:56.694Z,48.39
2019-01-08T09:40:24.817Z,48.11
2019-01-08T09:42:50.710Z,48.66
2019-01-08T09:45:16.620Z,48.57
2019-01-08T09:47:42.553Z,48.63
2019-01-08T09:50:08.454Z,48.36
2019-01-08T09:52:34.348Z,48.61
2019-01-08T09:55:00.296Z,48.61
2019-01-08T09:57:26.185Z,48.99
2019-01-08T09:59:52.133Z,48.61
2019-01-08T10:02:18.042Z,48.65
2019-01-08T10:04:47.194Z,48.47
2019-01-08T10:07:13.481Z,48.18
2019-01-08T10:09:39.414Z,48.62
2019-01-08T10:12:05.321Z,48.55
2019-01-08T10:14:31.262Z,48.63
2019-01-08T10:16:57.625Z,49.48
2019-01-08T10:19:23.520Z,48.62
2019-01-08T10:21:55.089Z,49.04
2019-01-08T10:24:20.984Z,49.22
2019-01-08T10:26:46.899Z,48.71
2019-01-08T10:29:12.844Z,48.55
2019-01-08T10:31:38.744Z,48.80
2019-01-08T10:34:07.555Z,48.88
2019-01-08T10:36:33.446Z,48.87
2019-01-08T10:38:59.351Z,48.79
2019-01-08T10:41:25.249Z,48.71
2019-01-08T10:43:52.510Z,48.73
2019-01-08T10:46:18.410Z,48.81
2019-01-08T10:48:45.297Z,48.99
2019-01-08T10:51:11.183Z,48.57
2019-01-08T10:53:37.124Z,48.60
2019-01-08T10:56:03.383Z,48.67
2019-01-08T10:58:32.063Z,48.76
2019-01-08T11:00:58.057Z,48.53
2019-01-08T11:03:26.897Z,48.68
2019-01-08T11:05:53.288Z,48.55
2019-01-08T11:08:22.745Z,49.14
2019-01-08T11:10:51.436Z,48.83
2019-01-08T11:13:17.765Z,49.58
2019-01-08T11:15:46.693Z,48.96
2019-01-08T11:18:16.157Z,49.60
2019-01-08T11:20:43.186Z,49.79
2019-01-08T11:23:12.076Z,49.14
2019-01-08T11:25:41.636Z,48.79
2019-01-08T11:28:10.568Z,48.88
2019-01-08T11:30:39.708Z,49.17
2019-01-08T11:33:05.983Z,49.45
2019-01-08T11:35:31.925Z,49.33
2019-01-08T11:37:57.822Z,48.76
2019-01-08T11:40:24.255Z,49.30
2019-01-08T11:42:50.165Z,49.07
2019-01-08T11:45:21.872Z,49.35
2019-01-08T11:47:47.808Z,49.63
2019-01-08T11:50:16.945Z,49.01
2019-01-08T11:52:42.847Z,49.28
2019-01-08T11:55:11.932Z,49.59
2019-01-08T11:57:40.955Z,48.89
2019-01-08T12:00:10.884Z,49.22
2019-01-08T12:02:47.619Z,49.73
2019-01-08T12:05:08.039Z,49.46
2019-01-08T12:07:36.777Z,49.80
2019-01-08T12:10:05.895Z,49.55
2019-01-08T12:12:34.858Z,49.84
2019-01-08T12:15:04.886Z,49.11
2019-01-08T12:17:34.223Z,48.63
2019-01-08T12:20:04.842Z,48.58
2019-01-08T12:22:30.739Z,49.74
2019-01-08T12:24:56.713Z,49.60
2019-01-08T12:27:25.619Z,49.85
2019-01-08T12:29:54.568Z,49.83
2019-01-08T12:32:23.474Z,49.84
2019-01-08T12:34:49.818Z,48.94
2019-01-08T12:37:18.525Z,49.49
2019-01-08T12:39:47.879Z,48.94
2019-01-08T12:42:13.812Z,48.79
2019-01-08T12:44:39.859Z,48.97
2019-01-08T12:47:08.923Z,48.75
2019-01-08T12:49:34.860Z,48.64
2019-01-08T12:52:00.876Z,48.69
2019-01-08T12:54:26.824Z,49.38
2019-01-08T12:56:58.143Z,49.13
2019-01-08T12:59:27.037Z,48.86
2019-01-08T13:01:52.929Z,48.71
2019-01-08T13:04:20.167Z,48.81
2019-01-08T13:06:46.176Z,48.83
2019-01-08T13:09:12.083Z,48.68
2019-01-08T13:11:38.439Z,48.64
2019-01-08T13:14:05.490Z,48.64
2019-01-08T13:16:31.789Z,48.71
2019-01-08T13:18:57.803Z,48.75
2019-01-08T13:21:23.749Z,48.81
2019-01-08T13:23:53.041Z,48.68
2019-01-08T13:26:22.093Z,48.66
2019-01-08T13:28:47.946Z,48.81
2019-01-08T13:31:16.704Z,49.08
2019-01-08T13:33:42.614Z,49.66
2019-01-08T13:36:08.516Z,49.24
2019-01-08T13:38:34.418Z,49.01
2019-01-08T13:41:00.323Z,49.66
2019-01-08T13:43:26.255Z,49.55
2019-01-08T13:45:52.159Z,49.27
2019-01-08T13:48:18.424Z,49.21
2019-01-08T13:50:44.317Z,49.84
2019-01-08T13:53:10.262Z,50.20
2019-01-08T13:55:36.159Z,49.73
2019-01-08T13:58:02.067Z,49.67
2019-01-08T14:00:27.969Z,49.55
2019-01-08T14:02:53.904Z,49.57
2019-01-08T14:05:21.762Z,49.42
2019-01-08T14:07:50.583Z,49.58
2019-01-08T14:10:22.362Z,49.59
2019-01-08T14:12:48.260Z,49.50
2019-01-08T14:15:17.366Z,49.29
2019-01-08T14:17:46.386Z,49.58
2019-01-08T14:20:12.326Z,49.40
2019-01-08T14:22:38.283Z,49.49
2019-01-08T14:25:07.248Z,49.43
2019-01-08T14:27:33.157Z,50.27
2019-01-08T14:30:02.875Z,50.20
2019-01-08T14:32:40.357Z,50.53
2019-01-08T14:34:59.724Z,50.56
2019-01-08T14:37:25.612Z,50.76
2019-01-08T14:39:51.530Z,50.83
2019-01-08T14:42:20.226Z,51.27
2019-01-08T14:44:46.148Z,51.57
2019-01-08T14:47:14.886Z,51.27
2019-01-08T14:49:44.136Z,50.89
2019-01-08T14:52:12.880Z,50.70
2019-01-08T14:54:38.850Z,51.17
2019-01-08T14:57:04.754Z,50.84
2019-01-08T14:59:33.814Z,51.07
2019-01-08T15:02:02.733Z,51.17
2019-01-08T15:04:28.786Z,51.07
2019-01-08T15:06:57.715Z,50.97
2019-01-08T15:09:23.572Z,50.59
2019-01-08T15:11:52.582Z,50.32
2019-01-08T15:14:18.491Z,50.84
2019-01-08T15:16:47.605Z,51.01
2019-01-08T15:19:13.520Z,51.02
2019-01-08T15:21:39.721Z,51.07
2019-01-08T15:24:05.614Z,51.36
2019-01-08T15:26:31.528Z,51.15
2019-01-08T15:28:57.433Z,51.06
2019-01-08T15:31:23.340Z,51.51
2019-01-08T15:33:50.910Z,51.33
2019-01-08T15:36:16.812Z,51.25
2019-01-08T15:38:45.472Z,50.91
2019-01-08T15:41:14.562Z,51.53
2019-01-08T15:43:40.458Z,51.03
2019-01-08T15:46:06.349Z,50.73
2019-01-08T15:48:32.261Z,51.11
2019-01-08T15:50:58.157Z,51.10
2019-01-08T15:53:28.959Z,51.15
2019-01-08T15:55:58.058Z,51.25
2019-01-08T15:58:27.069Z,51.07
2019-01-08T16:00:55.730Z,50.74
2019-01-08T16:03:24.776Z,51.09
2019-01-08T16:05:50.753Z,51.02
2019-01-08T16:08:16.698Z,51.31
2019-01-08T16:10:45.628Z,51.25
2019-01-08T16:13:14.784Z,51.04
2019-01-08T16:15:43.695Z,51.15
2019-01-08T16:18:09.655Z,51.15
2019-01-08T16:20:36.311Z,51.07
2019-01-08T16:23:02.241Z,51.00
2019-01-08T16:25:28.151Z,51.00
2019-01-08T16:27:56.806Z,50.89
2019-01-08T16:30:22.756Z,51.00
2019-01-08T16:32:51.695Z,51.07
2019-01-08T16:35:20.608Z,50.90
2019-01-08T16:37:52.292Z,50.81
2019-01-08T16:40:21.497Z,50.81
2019-01-08T16:42:50.166Z,50.72
2019-01-08T16:45:21.340Z,50.90
2019-01-08T16:47:50.285Z,50.41
2019-01-08T16:50:16.292Z,50.61
2019-01-08T16:52:42.179Z,50.46
2019-01-08T16:55:11.294Z,50.48
2019-01-08T16:57:40.262Z,50.27
2019-01-08T17:00:18.666Z,50.48
2019-01-08T17:02:44.667Z,50.68
2019-01-08T17:08:07.793Z,50.62
2019-01-08T17:10:33.728Z,50.67
2019-01-08T17:12:59.637Z,50.82
2019-01-08T17:15:28.791Z,50.91
2019-01-08T17:17:57.738Z,50.94
2019-01-08T17:20:26.838Z,50.79
2019-01-08T17:22:59.115Z,50.79
2019-01-08T17:25:28.027Z,50.70
2019-01-08T17:27:57.329Z,50.69
2019-01-08T17:30:23.787Z,50.63
2019-01-08T17:32:51.591Z,50.30
2019-01-08T17:35:17.856Z,50.28
2019-01-08T17:37:43.796Z,50.20
2019-01-08T17:40:12.775Z,50.40
2019-01-08T17:42:38.715Z,50.59
2019-01-08T17:45:08.574Z,50.06
2019-01-08T17:47:37.360Z,50.40
2019-01-08T17:50:04.078Z,50.24
2019-01-08T17:52:29.987Z,50.25
2019-01-08T17:54:55.913Z,50.50
2019-01-08T17:57:21.813Z,50.58
2019-01-08T17:59:47.738Z,50.50
2019-01-08T18:02:14.222Z,50.07
2019-01-08T18:04:40.123Z,49.48
2019-01-08T18:07:06.023Z,50.02
2019-01-08T18:09:31.918Z,49.79
2019-01-08T18:12:01.066Z,49.81
2019-01-08T18:14:30.157Z,49.74
2019-01-08T18:16:59.288Z,49.74
2019-01-08T18:19:25.205Z,50.05
2019-01-08T18:21:54.398Z,49.87
2019-01-08T18:24:20.296Z,49.77
2019-01-08T18:26:46.192Z,50.15
2019-01-08T18:29:12.106Z,49.76
2019-01-08T18:31:38.015Z,50.02
2019-01-08T18:34:03.933Z,49.79
2019-01-08T18:36:29.836Z,49.81
2019-01-08T18:38:55.738Z,49.87
2019-01-08T18:41:21.635Z,49.74
2019-01-08T18:43:47.557Z,49.90
2019-01-08T18:46:13.494Z,49.55
2019-01-08T18:48:42.877Z,50.12
2019-01-08T18:51:08.776Z,49.61
2019-01-08T18:53:37.499Z,49.85
2019-01-08T18:56:03.529Z,50.13
2019-01-08T18:58:30.958Z,49.97
2019-01-08T19:00:57.978Z,49.80
2019-01-08T19:03:24.653Z,49.84
2019-01-08T19:05:51.425Z,49.39
2019-01-08T19:08:18.185Z,49.51
2019-01-08T19:10:48.027Z,49.65
2019-01-08T19:13:14.785Z,49.74
2019-01-08T19:15:41.798Z,49.46
2019-01-08T19:18:11.598Z,49.94
2019-01-08T19:20:38.418Z,49.49
2019-01-08T19:23:05.003Z,50.04
2019-01-08T19:25:32.103Z,49.49
2019-01-08T19:28:02.538Z,49.60
2019-01-08T19:30:29.198Z,49.55
2019-01-08T19:32:56.457Z,49.73
2019-01-08T19:35:31.550Z,49.81
2019-01-08T19:37:57.044Z,50.05
2019-01-08T19:40:23.013Z,49.83
2019-01-08T19:42:52.024Z,50.02
2019-01-08T19:45:18.085Z,49.74
2019-01-08T19:47:44.042Z,49.81
2019-01-08T19:50:13.016Z,49.93
2019-01-08T19:52:38.963Z,49.59
2019-01-08T19:55:07.958Z,49.83
2019-01-08T19:57:36.847Z,49.74
2019-01-08T20:00:03.146Z,49.66
2019-01-08T20:02:29.374Z,49.57
2019-01-08T20:04:55.326Z,49.40
2019-01-08T20:07:21.272Z,49.02
2019-01-08T20:09:52.989Z,49.41
2019-01-08T20:12:21.943Z,48.89
2019-01-08T20:14:47.860Z,49.43
2019-01-08T20:17:13.759Z,48.94
2019-01-08T20:19:39.659Z,49.73
2019-01-08T20:22:06.027Z,49.40
2019-01-08T20:24:32.831Z,49.12
2019-01-08T20:27:01.617Z,49.04
2019-01-08T20:29:30.898Z,48.92
2019-01-08T20:32:00.263Z,48.88
2019-01-08T20:34:32.155Z,48.83
2019-01-08T20:37:02.240Z,49.14
2019-01-08T20:39:34.203Z,49.79
2019-01-08T20:42:01.163Z,48.92
2019-01-08T20:44:27.766Z,49.14
2019-01-08T20:46:54.618Z,49.40
2019-01-08T20:49:21.808Z,49.34
2019-01-08T20:51:51.510Z,49.27
2019-01-08T20:54:21.811Z,49.23
2019-01-08T20:56:52.993Z,49.27
2019-01-08T20:59:20.267Z,49.31
2019-01-08T21:01:53.567Z,49.06
2019-01-08T21:04:23.755Z,49.39
2019-01-08T21:06:51.179Z,49.32
2019-01-08T21:09:21.126Z,48.89
2019-01-08T21:11:52.932Z,49.50
2019-01-08T21:14:18.824Z,49.21
2019-01-08T21:17:07.322Z,49.29
2019-01-08T21:22:48.455Z,49.42
2019-01-08T21:25:36.583Z,49.25
2019-01-08T21:28:00.875Z,49.55
2019-01-08T21:30:27.299Z,49.28
2019-01-08T21:32:53.223Z,49.09
2019-01-08T21:35:29.190Z,48.83
2019-01-08T21:38:11.357Z,48.99
2019-01-08T21:40:37.707Z,49.19
2019-01-08T21:43:13.483Z,49.25
2019-01-08T21:46:03.994Z,48.95
2019-01-08T21:51:59.411Z,49.23
2019-01-08T21:54:24.503Z,49.03
2019-01-08T21:56:51.203Z,48.92
2019-01-08T21:59:30.852Z,49.55
2019-01-08T22:02:25.174Z,49.68
2019-01-08T22:04:53.236Z,49.52
2019-01-08T22:07:22.048Z,49.40
2019-01-08T22:10:07.824Z,48.97
2019-01-08T22:19:05.367Z,49.57
2019-01-08T22:24:29.083Z,49.17
2019-01-08T22:26:57.203Z,49.58
2019-01-08T22:32:30.107Z,49.21
2019-01-08T22:35:02.112Z,49.48
2019-01-08T22:37:26.534Z,49.49
2019-01-08T22:39:55.328Z,49.35
2019-01-08T22:42:21.293Z,49.42
2019-01-08T22:44:47.238Z,49.39
2019-01-08T22:47:13.368Z,49.35
2019-01-08T22:49:39.314Z,49.48
2019-01-08T22:52:30.935Z,49.53
2019-01-08T22:57:50.755Z,49.40
2019-01-08T23:00:35.391Z,49.10
2019-01-08T23:03:01.343Z,49.15
2019-01-08T23:05:27.232Z,49.19
2019-01-08T23:07:54.209Z,49.36
2019-01-08T23:10:20.459Z,48.87
2019-01-08T23:12:49.193Z,49.22
2019-01-08T23:15:15.081Z,48.79
2019-01-08T23:17:44.256Z,49.33
2019-01-08T23:20:10.161Z,48.66
2019-01-08T23:22:36.063Z,48.99
2019-01-08T23:25:01.980Z,49.16
2019-01-08T23:27:28.290Z,49.20
2019-01-08T23:29:57.156Z,49.21
2019-01-08T23:32:23.075Z,48.99
2019-01-08T23:34:51.779Z,49.25
2019-01-08T23:37:17.685Z,48.96
2019-01-08T23:39:44.006Z,48.96
2019-01-08T23:42:09.897Z,49.39
2019-01-08T23:44:38.571Z,49.25
2019-01-08T23:47:07.528Z,49.07
2019-01-08T23:49:36.553Z,49.00
2019-01-08T23:52:02.450Z,48.67
2019-01-08T23:54:31.543Z,48.35
2019-01-08T23:56:58.161Z,48.89
2019-01-08T23:59:27.133Z,48.98
